sensor_id;sensor_type;location;lat;lon;timestamp;temperature;humidity
35445;DHT22;21562;49.476;6.086;2022-08-01T00:02:06;23.60;99.90
35445;DHT22;21562;49.476;6.086;2022-08-01T00:04:31;23.60;99.90
35445;DHT22;21562;49.476;6.086;2022-08-01T00:06:57;23.50;99.90
35445;DHT22;21562;49.476;6.086;2022-08-01T00:09:23;23.50;99.90
35445;DHT22;21562;49.476;6.086;2022-08-01T00:11:48;23.40;99.90
35445;DHT22;21562;49.476;6.086;2022-08-01T00:14:14;23.40;99.90
35445;DHT22;21562;49.476;6.086;2022-08-01T00:16:40;23.40;99.90
35445;DHT22;21562;49.476;6.086;2022-08-01T00:19:05;23.50;99.90
35445;DHT22;21562;49.476;6.086;2022-08-01T00:21:31;23.30;99.90
35445;DHT22;21562;49.476;6.086;2022-08-01T00:23:56;23.10;99.90
35445;DHT22;21562;49.476;6.086;2022-08-01T00:26:22;23.10;99.90
35445;DHT22;21562;49.476;6.086;2022-08-01T00:28:48;22.80;99.90
35445;DHT22;21562;49.476;6.086;2022-08-01T00:31:13;22.70;99.90
35445;DHT22;21562;49.476;6.086;2022-08-01T00:33:39;22.60;99.90
35445;DHT22;21562;49.476;6.086;2022-08-01T00:36:05;22.70;99.90
35445;DHT22;21562;49.476;6.086;2022-08-01T00:38:30;22.80;99.90
35445;DHT22;21562;49.476;6.086;2022-08-01T00:40:56;22.40;99.90
35445;DHT22;21562;49.476;6.086;2022-08-01T00:43:22;22.00;99.90
35445;DHT22;21562;49.476;6.086;2022-08-01T00:45:48;22.20;99.90
35445;DHT22;21562;49.476;6.086;2022-08-01T00:48:13;22.60;99.90
35445;DHT22;21562;49.476;6.086;2022-08-01T00:50:39;23.00;99.90
35445;DHT22;21562;49.476;6.086;2022-08-01T00:53:05;23.00;99.90
35445;DHT22;21562;49.476;6.086;2022-08-01T00:55:31;23.10;99.90
35445;DHT22;21562;49.476;6.086;2022-08-01T00:57:57;23.30;99.90
35445;DHT22;21562;49.476;6.086;2022-08-01T01:00:23;23.40;99.90
35445;DHT22;21562;49.476;6.086;2022-08-01T01:02:49;23.60;99.90
35445;DHT22;21562;49.476;6.086;2022-08-01T01:05:14;23.60;99.90
35445;DHT22;21562;49.476;6.086;2022-08-01T01:10:28;23.50;99.90
35445;DHT22;21562;49.476;6.086;2022-08-01T01:13:16;23.50;99.90
35445;DHT22;21562;49.476;6.086;2022-08-01T01:15:50;23.30;99.90
35445;DHT22;21562;49.476;6.086;2022-08-01T01:29:06;22.80;99.90
35445;DHT22;21562;49.476;6.086;2022-08-01T01:31:47;22.70;99.90
35445;DHT22;21562;49.476;6.086;2022-08-01T01:34:15;22.50;99.90
35445;DHT22;21562;49.476;6.086;2022-08-01T01:36:42;22.60;99.90
35445;DHT22;21562;49.476;6.086;2022-08-01T01:39:09;22.80;99.90
35445;DHT22;21562;49.476;6.086;2022-08-01T01:41:36;23.00;99.90
35445;DHT22;21562;49.476;6.086;2022-08-01T01:44:04;23.00;99.90
35445;DHT22;21562;49.476;6.086;2022-08-01T01:46:31;22.50;99.90
35445;DHT22;21562;49.476;6.086;2022-08-01T01:48:58;22.50;99.90
35445;DHT22;21562;49.476;6.086;2022-08-01T01:51:25;22.60;99.90
35445;DHT22;21562;49.476;6.086;2022-08-01T01:53:53;22.60;99.90
35445;DHT22;21562;49.476;6.086;2022-08-01T01:56:20;22.50;99.90
35445;DHT22;21562;49.476;6.086;2022-08-01T01:58:51;22.50;99.90
35445;DHT22;21562;49.476;6.086;2022-08-01T02:01:19;22.40;99.90
35445;DHT22;21562;49.476;6.086;2022-08-01T02:03:46;22.30;99.90
35445;DHT22;21562;49.476;6.086;2022-08-01T02:06:15;22.20;99.90
35445;DHT22;21562;49.476;6.086;2022-08-01T02:08:42;22.10;99.90
35445;DHT22;21562;49.476;6.086;2022-08-01T02:11:09;22.20;99.90
35445;DHT22;21562;49.476;6.086;2022-08-01T02:13:48;22.10;99.90
35445;DHT22;21562;49.476;6.086;2022-08-01T02:16:16;22.20;99.90
35445;DHT22;21562;49.476;6.086;2022-08-01T02:18:42;21.90;99.90
35445;DHT22;21562;49.476;6.086;2022-08-01T02:21:12;22.10;99.90
35445;DHT22;21562;49.476;6.086;2022-08-01T02:23:39;22.10;99.90
35445;DHT22;21562;49.476;6.086;2022-08-01T02:26:13;22.20;99.90
35445;DHT22;21562;49.476;6.086;2022-08-01T02:28:52;22.20;99.90
35445;DHT22;21562;49.476;6.086;2022-08-01T02:31:21;22.00;99.90
35445;DHT22;21562;49.476;6.086;2022-08-01T02:34:04;22.10;99.90
35445;DHT22;21562;49.476;6.086;2022-08-01T02:36:34;22.20;99.90
35445;DHT22;21562;49.476;6.086;2022-08-01T02:39:08;22.30;99.90
35445;DHT22;21562;49.476;6.086;2022-08-01T02:41:39;22.50;99.90
35445;DHT22;21562;49.476;6.086;2022-08-01T02:44:08;22.30;99.90
35445;DHT22;21562;49.476;6.086;2022-08-01T02:46:49;22.30;99.90
35445;DHT22;21562;49.476;6.086;2022-08-01T02:49:16;22.10;99.90
35445;DHT22;21562;49.476;6.086;2022-08-01T02:51:46;22.30;99.90
35445;DHT22;21562;49.476;6.086;2022-08-01T02:54:15;22.60;99.90
35445;DHT22;21562;49.476;6.086;2022-08-01T02:56:43;22.70;99.90
35445;DHT22;21562;49.476;6.086;2022-08-01T02:59:13;22.90;99.90
35445;DHT22;21562;49.476;6.086;2022-08-01T03:01:41;22.70;99.90
35445;DHT22;21562;49.476;6.086;2022-08-01T03:04:09;22.50;99.90
35445;DHT22;21562;49.476;6.086;2022-08-01T03:06:35;22.40;99.90
35445;DHT22;21562;49.476;6.086;2022-08-01T03:09:03;22.40;99.90
35445;DHT22;21562;49.476;6.086;2022-08-01T03:11:30;22.30;99.90
35445;DHT22;21562;49.476;6.086;2022-08-01T03:13:58;22.20;99.90
35445;DHT22;21562;49.476;6.086;2022-08-01T03:16:26;22.30;99.90
35445;DHT22;21562;49.476;6.086;2022-08-01T03:18:53;22.20;99.90
35445;DHT22;21562;49.476;6.086;2022-08-01T03:21:22;22.30;99.90
35445;DHT22;21562;49.476;6.086;2022-08-01T03:23:50;22.20;99.90
35445;DHT22;21562;49.476;6.086;2022-08-01T03:26:17;22.00;99.90
35445;DHT22;21562;49.476;6.086;2022-08-01T03:28:46;22.20;99.90
35445;DHT22;21562;49.476;6.086;2022-08-01T03:31:14;22.30;99.90
35445;DHT22;21562;49.476;6.086;2022-08-01T03:33:40;22.30;99.90
35445;DHT22;21562;49.476;6.086;2022-08-01T03:36:09;21.80;99.90
35445;DHT22;21562;49.476;6.086;2022-08-01T03:38:37;21.60;99.90
35445;DHT22;21562;49.476;6.086;2022-08-01T03:41:18;21.60;99.90
35445;DHT22;21562;49.476;6.086;2022-08-01T03:43:58;21.90;99.90
35445;DHT22;21562;49.476;6.086;2022-08-01T03:46:50;21.90;99.90
35445;DHT22;21562;49.476;6.086;2022-08-01T03:49:20;21.90;99.90
35445;DHT22;21562;49.476;6.086;2022-08-01T03:51:48;21.90;99.90
35445;DHT22;21562;49.476;6.086;2022-08-01T03:54:17;21.80;99.90
35445;DHT22;21562;49.476;6.086;2022-08-01T03:56:46;21.90;99.90
35445;DHT22;21562;49.476;6.086;2022-08-01T03:59:15;21.80;99.90
35445;DHT22;21562;49.476;6.086;2022-08-01T04:01:44;21.80;99.90
35445;DHT22;21562;49.476;6.086;2022-08-01T04:04:10;21.70;99.90
35445;DHT22;21562;49.476;6.086;2022-08-01T04:06:42;21.40;99.90
35445;DHT22;21562;49.476;6.086;2022-08-01T04:09:10;21.40;99.90
35445;DHT22;21562;49.476;6.086;2022-08-01T04:11:37;21.50;99.90
35445;DHT22;21562;49.476;6.086;2022-08-01T04:14:03;21.40;99.90
35445;DHT22;21562;49.476;6.086;2022-08-01T04:16:29;21.60;99.90
35445;DHT22;21562;49.476;6.086;2022-08-01T04:18:54;21.80;99.90
35445;DHT22;21562;49.476;6.086;2022-08-01T04:21:23;22.10;99.90
35445;DHT22;21562;49.476;6.086;2022-08-01T04:23:51;22.20;99.90
35445;DHT22;21562;49.476;6.086;2022-08-01T04:26:19;22.20;99.90
35445;DHT22;21562;49.476;6.086;2022-08-01T04:28:46;22.50;99.90
35445;DHT22;21562;49.476;6.086;2022-08-01T04:31:14;22.40;99.90
35445;DHT22;21562;49.476;6.086;2022-08-01T04:33:45;22.50;99.90
35445;DHT22;21562;49.476;6.086;2022-08-01T04:36:12;22.40;99.90
35445;DHT22;21562;49.476;6.086;2022-08-01T04:38:42;22.70;99.90
35445;DHT22;21562;49.476;6.086;2022-08-01T04:41:12;23.00;99.90
35445;DHT22;21562;49.476;6.086;2022-08-01T04:43:38;23.20;99.90
35445;DHT22;21562;49.476;6.086;2022-08-01T04:46:06;23.10;99.90
35445;DHT22;21562;49.476;6.086;2022-08-01T04:48:33;22.60;99.90
35445;DHT22;21562;49.476;6.086;2022-08-01T04:51:00;21.60;99.90
35445;DHT22;21562;49.476;6.086;2022-08-01T04:53:26;21.70;99.90
35445;DHT22;21562;49.476;6.086;2022-08-01T04:55:52;22.00;99.90
35445;DHT22;21562;49.476;6.086;2022-08-01T04:58:18;22.20;99.90
35445;DHT22;21562;49.476;6.086;2022-08-01T05:00:44;22.00;99.90
35445;DHT22;21562;49.476;6.086;2022-08-01T05:03:09;21.90;99.90
35445;DHT22;21562;49.476;6.086;2022-08-01T05:05:35;22.20;99.90
35445;DHT22;21562;49.476;6.086;2022-08-01T05:08:01;22.00;99.90
35445;DHT22;21562;49.476;6.086;2022-08-01T05:10:27;21.40;99.90
35445;DHT22;21562;49.476;6.086;2022-08-01T05:12:53;21.30;99.90
35445;DHT22;21562;49.476;6.086;2022-08-01T05:15:18;21.70;99.90
35445;DHT22;21562;49.476;6.086;2022-08-01T05:17:44;21.70;99.90
35445;DHT22;21562;49.476;6.086;2022-08-01T05:20:11;21.50;99.90
35445;DHT22;21562;49.476;6.086;2022-08-01T05:22:37;21.40;99.90
35445;DHT22;21562;49.476;6.086;2022-08-01T05:25:03;21.90;99.90
35445;DHT22;21562;49.476;6.086;2022-08-01T05:27:30;21.60;99.90
35445;DHT22;21562;49.476;6.086;2022-08-01T05:29:56;22.00;99.90
35445;DHT22;21562;49.476;6.086;2022-08-01T05:32:22;22.00;99.90
35445;DHT22;21562;49.476;6.086;2022-08-01T05:34:47;22.30;99.90
35445;DHT22;21562;49.476;6.086;2022-08-01T05:37:13;22.30;99.90
35445;DHT22;21562;49.476;6.086;2022-08-01T05:39:39;21.70;99.90
35445;DHT22;21562;49.476;6.086;2022-08-01T05:42:05;21.50;99.90
35445;DHT22;21562;49.476;6.086;2022-08-01T05:44:31;21.30;99.90
35445;DHT22;21562;49.476;6.086;2022-08-01T05:46:57;21.20;99.90
35445;DHT22;21562;49.476;6.086;2022-08-01T05:49:23;21.10;99.90
35445;DHT22;21562;49.476;6.086;2022-08-01T05:51:49;20.80;99.90
35445;DHT22;21562;49.476;6.086;2022-08-01T05:54:14;20.40;99.90
35445;DHT22;21562;49.476;6.086;2022-08-01T05:56:40;21.30;99.90
35445;DHT22;21562;49.476;6.086;2022-08-01T05:59:06;22.00;99.90
35445;DHT22;21562;49.476;6.086;2022-08-01T06:01:32;22.50;99.90
35445;DHT22;21562;49.476;6.086;2022-08-01T06:03:57;22.20;99.90
35445;DHT22;21562;49.476;6.086;2022-08-01T06:06:23;22.40;99.90
35445;DHT22;21562;49.476;6.086;2022-08-01T06:08:49;22.10;99.90
35445;DHT22;21562;49.476;6.086;2022-08-01T06:11:15;21.20;99.90
35445;DHT22;21562;49.476;6.086;2022-08-01T06:13:41;20.60;99.90
35445;DHT22;21562;49.476;6.086;2022-08-01T06:16:07;20.90;99.90
35445;DHT22;21562;49.476;6.086;2022-08-01T06:18:32;21.10;99.90
35445;DHT22;21562;49.476;6.086;2022-08-01T06:20:58;21.20;99.90
35445;DHT22;21562;49.476;6.086;2022-08-01T06:23:24;21.50;99.90
35445;DHT22;21562;49.476;6.086;2022-08-01T06:25:52;21.80;99.90
35445;DHT22;21562;49.476;6.086;2022-08-01T06:28:19;22.10;99.90
35445;DHT22;21562;49.476;6.086;2022-08-01T06:30:45;22.20;99.90
35445;DHT22;21562;49.476;6.086;2022-08-01T06:33:10;22.50;99.90
35445;DHT22;21562;49.476;6.086;2022-08-01T06:35:36;22.80;99.90
35445;DHT22;21562;49.476;6.086;2022-08-01T06:38:02;23.20;99.90
35445;DHT22;21562;49.476;6.086;2022-08-01T06:40:28;23.70;99.90
35445;DHT22;21562;49.476;6.086;2022-08-01T06:42:54;24.00;99.90
35445;DHT22;21562;49.476;6.086;2022-08-01T06:45:20;24.00;99.90
35445;DHT22;21562;49.476;6.086;2022-08-01T06:47:48;24.10;99.90
35445;DHT22;21562;49.476;6.086;2022-08-01T06:50:13;23.80;99.90
35445;DHT22;21562;49.476;6.086;2022-08-01T06:52:40;24.00;99.90
35445;DHT22;21562;49.476;6.086;2022-08-01T06:55:07;23.60;99.90
35445;DHT22;21562;49.476;6.086;2022-08-01T06:57:32;23.40;99.90
35445;DHT22;21562;49.476;6.086;2022-08-01T07:00:03;22.60;99.90
35445;DHT22;21562;49.476;6.086;2022-08-01T07:02:30;22.40;99.90
35445;DHT22;21562;49.476;6.086;2022-08-01T07:04:56;23.00;99.90
35445;DHT22;21562;49.476;6.086;2022-08-01T07:07:26;23.60;99.90
35445;DHT22;21562;49.476;6.086;2022-08-01T07:09:52;23.80;99.90
35445;DHT22;21562;49.476;6.086;2022-08-01T07:12:17;24.00;99.90
35445;DHT22;21562;49.476;6.086;2022-08-01T07:14:43;23.80;99.90
35445;DHT22;21562;49.476;6.086;2022-08-01T07:17:08;24.10;99.90
35445;DHT22;21562;49.476;6.086;2022-08-01T07:19:34;24.20;99.90
35445;DHT22;21562;49.476;6.086;2022-08-01T07:22:00;24.40;99.90
35445;DHT22;21562;49.476;6.086;2022-08-01T07:24:26;23.80;99.90
35445;DHT22;21562;49.476;6.086;2022-08-01T07:26:51;24.00;99.90
35445;DHT22;21562;49.476;6.086;2022-08-01T07:29:19;23.70;99.90
35445;DHT22;21562;49.476;6.086;2022-08-01T07:31:45;23.90;99.90
35445;DHT22;21562;49.476;6.086;2022-08-01T07:34:10;24.10;99.90
35445;DHT22;21562;49.476;6.086;2022-08-01T07:36:36;24.00;99.90
35445;DHT22;21562;49.476;6.086;2022-08-01T07:39:02;23.90;99.90
35445;DHT22;21562;49.476;6.086;2022-08-01T07:41:27;24.20;99.90
35445;DHT22;21562;49.476;6.086;2022-08-01T07:43:53;23.50;99.90
35445;DHT22;21562;49.476;6.086;2022-08-01T07:46:19;23.60;99.90
35445;DHT22;21562;49.476;6.086;2022-08-01T07:48:44;23.50;99.90
35445;DHT22;21562;49.476;6.086;2022-08-01T07:51:10;23.10;99.90
35445;DHT22;21562;49.476;6.086;2022-08-01T07:53:36;23.00;99.90
35445;DHT22;21562;49.476;6.086;2022-08-01T07:56:02;23.60;99.90
35445;DHT22;21562;49.476;6.086;2022-08-01T07:58:30;23.80;99.90
35445;DHT22;21562;49.476;6.086;2022-08-01T08:00:55;23.50;99.90
35445;DHT22;21562;49.476;6.086;2022-08-01T08:03:21;23.10;99.90
35445;DHT22;21562;49.476;6.086;2022-08-01T08:05:47;22.70;99.90
35445;DHT22;21562;49.476;6.086;2022-08-01T08:08:12;22.60;99.90
35445;DHT22;21562;49.476;6.086;2022-08-01T08:10:39;22.40;99.90
35445;DHT22;21562;49.476;6.086;2022-08-01T08:13:05;22.30;99.90
35445;DHT22;21562;49.476;6.086;2022-08-01T08:15:30;22.30;99.90
35445;DHT22;21562;49.476;6.086;2022-08-01T08:17:56;22.20;99.90
35445;DHT22;21562;49.476;6.086;2022-08-01T08:20:22;22.20;99.90
35445;DHT22;21562;49.476;6.086;2022-08-01T08:22:51;22.40;99.90
35445;DHT22;21562;49.476;6.086;2022-08-01T08:25:17;22.40;99.90
35445;DHT22;21562;49.476;6.086;2022-08-01T08:27:45;22.30;99.90
35445;DHT22;21562;49.476;6.086;2022-08-01T08:30:11;22.10;99.90
35445;DHT22;21562;49.476;6.086;2022-08-01T08:32:38;22.10;99.90
35445;DHT22;21562;49.476;6.086;2022-08-01T08:35:06;22.50;99.90
35445;DHT22;21562;49.476;6.086;2022-08-01T08:37:33;22.40;99.90
35445;DHT22;21562;49.476;6.086;2022-08-01T08:39:59;22.10;99.90
35445;DHT22;21562;49.476;6.086;2022-08-01T08:42:25;22.10;99.90
35445;DHT22;21562;49.476;6.086;2022-08-01T08:44:51;21.90;99.90
35445;DHT22;21562;49.476;6.086;2022-08-01T08:47:20;21.50;99.90
35445;DHT22;21562;49.476;6.086;2022-08-01T08:49:48;21.40;99.90
35445;DHT22;21562;49.476;6.086;2022-08-01T08:52:14;21.40;99.90
35445;DHT22;21562;49.476;6.086;2022-08-01T08:54:41;21.50;99.90
35445;DHT22;21562;49.476;6.086;2022-08-01T08:57:07;21.30;99.90
35445;DHT22;21562;49.476;6.086;2022-08-01T08:59:36;21.20;99.90
35445;DHT22;21562;49.476;6.086;2022-08-01T09:02:02;21.40;99.90
35445;DHT22;21562;49.476;6.086;2022-08-01T09:04:30;21.70;99.90
35445;DHT22;21562;49.476;6.086;2022-08-01T09:06:56;21.80;99.90
35445;DHT22;21562;49.476;6.086;2022-08-01T09:09:22;22.00;99.90
35445;DHT22;21562;49.476;6.086;2022-08-01T09:11:48;22.20;99.90
35445;DHT22;21562;49.476;6.086;2022-08-01T09:14:15;22.40;99.90
35445;DHT22;21562;49.476;6.086;2022-08-01T09:17:06;22.10;99.90
35445;DHT22;21562;49.476;6.086;2022-08-01T09:19:38;22.30;99.90
35445;DHT22;21562;49.476;6.086;2022-08-01T09:22:10;22.20;99.90
35445;DHT22;21562;49.476;6.086;2022-08-01T09:24:38;22.80;99.90
35445;DHT22;21562;49.476;6.086;2022-08-01T09:27:21;22.70;99.90
35445;DHT22;21562;49.476;6.086;2022-08-01T09:29:51;22.90;99.90
35445;DHT22;21562;49.476;6.086;2022-08-01T09:32:17;22.70;99.90
35445;DHT22;21562;49.476;6.086;2022-08-01T09:34:42;22.10;99.90
35445;DHT22;21562;49.476;6.086;2022-08-01T09:37:08;22.30;99.90
35445;DHT22;21562;49.476;6.086;2022-08-01T09:39:36;22.60;99.90
35445;DHT22;21562;49.476;6.086;2022-08-01T09:42:19;22.70;99.90
35445;DHT22;21562;49.476;6.086;2022-08-01T09:44:45;23.10;99.90
35445;DHT22;21562;49.476;6.086;2022-08-01T09:47:12;23.30;99.90
35445;DHT22;21562;49.476;6.086;2022-08-01T09:49:40;23.30;99.90
35445;DHT22;21562;49.476;6.086;2022-08-01T09:52:20;23.60;99.90
35445;DHT22;21562;49.476;6.086;2022-08-01T09:54:55;23.20;99.90
35445;DHT22;21562;49.476;6.086;2022-08-01T09:57:21;22.80;99.90
35445;DHT22;21562;49.476;6.086;2022-08-01T09:59:50;22.50;99.90
35445;DHT22;21562;49.476;6.086;2022-08-01T10:04:56;22.50;99.90
35445;DHT22;21562;49.476;6.086;2022-08-01T10:07:22;22.80;99.90
35445;DHT22;21562;49.476;6.086;2022-08-01T10:09:47;23.00;99.90
35445;DHT22;21562;49.476;6.086;2022-08-01T10:12:21;22.80;99.90
35445;DHT22;21562;49.476;6.086;2022-08-01T10:14:48;23.00;99.90
35445;DHT22;21562;49.476;6.086;2022-08-01T10:17:17;23.00;99.90
35445;DHT22;21562;49.476;6.086;2022-08-01T10:19:43;22.80;99.90
35445;DHT22;21562;49.476;6.086;2022-08-01T10:22:11;22.80;99.90
35445;DHT22;21562;49.476;6.086;2022-08-01T10:24:38;22.70;99.90
35445;DHT22;21562;49.476;6.086;2022-08-01T10:27:09;22.60;99.90
35445;DHT22;21562;49.476;6.086;2022-08-01T10:29:40;22.50;99.90
35445;DHT22;21562;49.476;6.086;2022-08-01T10:32:05;22.70;99.90
35445;DHT22;21562;49.476;6.086;2022-08-01T10:34:33;22.80;99.90
35445;DHT22;21562;49.476;6.086;2022-08-01T10:37:01;22.90;99.90
35445;DHT22;21562;49.476;6.086;2022-08-01T10:39:26;23.00;99.90
35445;DHT22;21562;49.476;6.086;2022-08-01T10:41:55;23.20;99.90
35445;DHT22;21562;49.476;6.086;2022-08-01T10:44:24;23.10;99.90
35445;DHT22;21562;49.476;6.086;2022-08-01T10:46:54;22.90;99.90
35445;DHT22;21562;49.476;6.086;2022-08-01T10:49:22;22.90;99.90
35445;DHT22;21562;49.476;6.086;2022-08-01T10:51:50;23.00;99.90
35445;DHT22;21562;49.476;6.086;2022-08-01T10:54:15;22.80;99.90
35445;DHT22;21562;49.476;6.086;2022-08-01T10:56:47;22.80;99.90
35445;DHT22;21562;49.476;6.086;2022-08-01T10:59:25;22.60;99.90
35445;DHT22;21562;49.476;6.086;2022-08-01T11:01:58;22.80;99.90
35445;DHT22;21562;49.476;6.086;2022-08-01T11:05:04;22.80;99.90
35445;DHT22;21562;49.476;6.086;2022-08-01T11:07:58;23.00;99.90
35445;DHT22;21562;49.476;6.086;2022-08-01T11:10:38;23.10;99.90
35445;DHT22;21562;49.476;6.086;2022-08-01T11:13:04;23.30;99.90
35445;DHT22;21562;49.476;6.086;2022-08-01T11:15:33;23.50;99.90
35445;DHT22;21562;49.476;6.086;2022-08-01T11:18:02;23.80;99.90
35445;DHT22;21562;49.476;6.086;2022-08-01T11:20:33;23.50;99.90
35445;DHT22;21562;49.476;6.086;2022-08-01T11:25:26;23.30;99.90
35445;DHT22;21562;49.476;6.086;2022-08-01T11:38:37;23.20;99.90
35445;DHT22;21562;49.476;6.086;2022-08-01T11:49:42;23.40;99.90
35445;DHT22;21562;49.476;6.086;2022-08-01T11:52:23;23.20;99.90
35445;DHT22;21562;49.476;6.086;2022-08-01T11:57:21;23.40;99.90
35445;DHT22;21562;49.476;6.086;2022-08-01T11:59:56;23.30;99.90
35445;DHT22;21562;49.476;6.086;2022-08-01T12:02:32;23.40;99.90
35445;DHT22;21562;49.476;6.086;2022-08-01T12:05:05;23.50;99.90
35445;DHT22;21562;49.476;6.086;2022-08-01T12:07:32;23.40;99.90
35445;DHT22;21562;49.476;6.086;2022-08-01T12:12:27;23.70;99.90
35445;DHT22;21562;49.476;6.086;2022-08-01T12:15:02;24.00;99.90
35445;DHT22;21562;49.476;6.086;2022-08-01T12:17:34;24.10;99.90
35445;DHT22;21562;49.476;6.086;2022-08-01T12:20:02;24.20;99.90
35445;DHT22;21562;49.476;6.086;2022-08-01T12:22:28;24.30;99.90
35445;DHT22;21562;49.476;6.086;2022-08-01T12:24:54;24.40;99.90
35445;DHT22;21562;49.476;6.086;2022-08-01T12:27:30;24.40;99.90
35445;DHT22;21562;49.476;6.086;2022-08-01T12:29:59;24.60;99.90
35445;DHT22;21562;49.476;6.086;2022-08-01T12:32:29;24.40;99.90
35445;DHT22;21562;49.476;6.086;2022-08-01T12:34:57;23.90;99.90
35445;DHT22;21562;49.476;6.086;2022-08-01T12:37:25;23.90;99.90
35445;DHT22;21562;49.476;6.086;2022-08-01T12:39:51;23.50;99.90
35445;DHT22;21562;49.476;6.086;2022-08-01T12:42:18;23.40;99.90
35445;DHT22;21562;49.476;6.086;2022-08-01T12:44:45;23.30;99.90
35445;DHT22;21562;49.476;6.086;2022-08-01T12:47:13;23.30;99.90
35445;DHT22;21562;49.476;6.086;2022-08-01T12:49:41;23.40;99.90
35445;DHT22;21562;49.476;6.086;2022-08-01T12:52:08;23.70;99.90
35445;DHT22;21562;49.476;6.086;2022-08-01T12:55:00;23.50;99.90
35445;DHT22;21562;49.476;6.086;2022-08-01T12:57:25;23.30;99.90
35445;DHT22;21562;49.476;6.086;2022-08-01T13:00:18;23.20;99.90
35445;DHT22;21562;49.476;6.086;2022-08-01T13:02:46;23.30;99.90
35445;DHT22;21562;49.476;6.086;2022-08-01T13:05:13;23.40;99.90
35445;DHT22;21562;49.476;6.086;2022-08-01T13:07:46;23.60;99.90
35445;DHT22;21562;49.476;6.086;2022-08-01T13:10:13;23.70;99.90
35445;DHT22;21562;49.476;6.086;2022-08-01T13:12:41;23.80;99.90
35445;DHT22;21562;49.476;6.086;2022-08-01T13:15:36;24.40;99.90
35445;DHT22;21562;49.476;6.086;2022-08-01T13:18:29;24.10;99.90
35445;DHT22;21562;49.476;6.086;2022-08-01T13:23:39;24.30;99.90
35445;DHT22;21562;49.476;6.086;2022-08-01T13:26:04;24.60;99.90
35445;DHT22;21562;49.476;6.086;2022-08-01T13:28:30;24.60;99.90
35445;DHT22;21562;49.476;6.086;2022-08-01T13:31:02;24.70;99.90
35445;DHT22;21562;49.476;6.086;2022-08-01T13:33:40;24.60;99.90
35445;DHT22;21562;49.476;6.086;2022-08-01T13:36:06;24.60;99.90
35445;DHT22;21562;49.476;6.086;2022-08-01T13:38:32;24.50;99.90
35445;DHT22;21562;49.476;6.086;2022-08-01T13:41:16;24.40;99.90
35445;DHT22;21562;49.476;6.086;2022-08-01T13:43:43;24.20;99.90
35445;DHT22;21562;49.476;6.086;2022-08-01T13:46:09;24.10;99.90
35445;DHT22;21562;49.476;6.086;2022-08-01T13:48:34;24.40;99.90
35445;DHT22;21562;49.476;6.086;2022-08-01T13:51:00;24.80;99.90
35445;DHT22;21562;49.476;6.086;2022-08-01T13:53:27;24.60;99.90
35445;DHT22;21562;49.476;6.086;2022-08-01T13:55:53;24.50;99.90
35445;DHT22;21562;49.476;6.086;2022-08-01T13:58:19;24.60;99.90
35445;DHT22;21562;49.476;6.086;2022-08-01T14:00:45;24.80;99.90
35445;DHT22;21562;49.476;6.086;2022-08-01T14:03:11;24.90;99.90
35445;DHT22;21562;49.476;6.086;2022-08-01T14:05:37;24.70;99.90
35445;DHT22;21562;49.476;6.086;2022-08-01T14:08:03;24.40;99.90
35445;DHT22;21562;49.476;6.086;2022-08-01T14:10:29;24.20;99.90
35445;DHT22;21562;49.476;6.086;2022-08-01T14:12:58;24.30;99.90
35445;DHT22;21562;49.476;6.086;2022-08-01T14:15:24;24.40;99.90
35445;DHT22;21562;49.476;6.086;2022-08-01T14:17:51;24.10;99.90
35445;DHT22;21562;49.476;6.086;2022-08-01T14:20:17;24.30;99.90
35445;DHT22;21562;49.476;6.086;2022-08-01T14:22:48;24.40;99.90
35445;DHT22;21562;49.476;6.086;2022-08-01T14:25:14;24.70;99.90
35445;DHT22;21562;49.476;6.086;2022-08-01T14:27:40;24.70;99.90
35445;DHT22;21562;49.476;6.086;2022-08-01T14:30:08;24.70;99.90
35445;DHT22;21562;49.476;6.086;2022-08-01T14:32:34;24.80;99.90
35445;DHT22;21562;49.476;6.086;2022-08-01T14:35:04;25.00;99.90
35445;DHT22;21562;49.476;6.086;2022-08-01T14:37:31;24.70;99.90
35445;DHT22;21562;49.476;6.086;2022-08-01T14:39:57;24.70;99.90
35445;DHT22;21562;49.476;6.086;2022-08-01T14:42:24;24.80;99.90
35445;DHT22;21562;49.476;6.086;2022-08-01T14:44:49;24.70;99.90
35445;DHT22;21562;49.476;6.086;2022-08-01T14:47:15;24.50;99.90
35445;DHT22;21562;49.476;6.086;2022-08-01T14:49:41;24.40;99.90
35445;DHT22;21562;49.476;6.086;2022-08-01T14:52:07;24.30;99.90
35445;DHT22;21562;49.476;6.086;2022-08-01T14:54:32;24.40;99.90
35445;DHT22;21562;49.476;6.086;2022-08-01T14:56:58;24.10;99.90
35445;DHT22;21562;49.476;6.086;2022-08-01T14:59:24;24.40;99.90
35445;DHT22;21562;49.476;6.086;2022-08-01T15:01:49;24.30;99.90
35445;DHT22;21562;49.476;6.086;2022-08-01T15:04:15;24.60;99.90
35445;DHT22;21562;49.476;6.086;2022-08-01T15:06:43;24.50;99.90
35445;DHT22;21562;49.476;6.086;2022-08-01T15:09:08;24.40;99.90
35445;DHT22;21562;49.476;6.086;2022-08-01T15:11:34;24.40;99.90
35445;DHT22;21562;49.476;6.086;2022-08-01T15:14:00;24.50;99.90
35445;DHT22;21562;49.476;6.086;2022-08-01T15:16:44;24.50;99.90
35445;DHT22;21562;49.476;6.086;2022-08-01T15:19:10;24.50;99.90
35445;DHT22;21562;49.476;6.086;2022-08-01T15:21:35;24.60;99.90
35445;DHT22;21562;49.476;6.086;2022-08-01T15:24:01;24.60;99.90
35445;DHT22;21562;49.476;6.086;2022-08-01T15:26:27;24.80;99.90
35445;DHT22;21562;49.476;6.086;2022-08-01T15:28:53;24.80;99.90
35445;DHT22;21562;49.476;6.086;2022-08-01T15:31:19;24.90;99.90
35445;DHT22;21562;49.476;6.086;2022-08-01T15:33:44;25.20;99.90
35445;DHT22;21562;49.476;6.086;2022-08-01T15:36:10;25.20;99.60
35445;DHT22;21562;49.476;6.086;2022-08-01T15:38:35;25.40;99.30
35445;DHT22;21562;49.476;6.086;2022-08-01T15:41:01;25.20;99.70
35445;DHT22;21562;49.476;6.086;2022-08-01T15:43:27;25.50;99.40
35445;DHT22;21562;49.476;6.086;2022-08-01T15:45:53;25.40;99.70
35445;DHT22;21562;49.476;6.086;2022-08-01T15:48:19;25.30;99.40
35445;DHT22;21562;49.476;6.086;2022-08-01T15:50:45;25.60;98.80
35445;DHT22;21562;49.476;6.086;2022-08-01T15:53:10;25.40;98.80
35445;DHT22;21562;49.476;6.086;2022-08-01T15:55:37;25.50;99.10
35445;DHT22;21562;49.476;6.086;2022-08-01T15:58:03;25.30;99.40
35445;DHT22;21562;49.476;6.086;2022-08-01T16:00:28;25.30;98.90
35445;DHT22;21562;49.476;6.086;2022-08-01T16:02:54;25.20;99.30
35445;DHT22;21562;49.476;6.086;2022-08-01T16:05:21;25.00;99.40
35445;DHT22;21562;49.476;6.086;2022-08-01T16:07:47;25.20;99.40
35445;DHT22;21562;49.476;6.086;2022-08-01T16:10:13;25.30;99.40
35445;DHT22;21562;49.476;6.086;2022-08-01T16:12:39;24.90;99.50
35445;DHT22;21562;49.476;6.086;2022-08-01T16:15:05;24.70;99.90
35445;DHT22;21562;49.476;6.086;2022-08-01T16:17:31;24.40;99.90
35445;DHT22;21562;49.476;6.086;2022-08-01T16:19:56;24.50;99.90
35445;DHT22;21562;49.476;6.086;2022-08-01T16:22:22;24.50;99.90